createdAt,value
2022-12-12T00:01:17.159Z,31.75
2022-12-12T00:03:45.266Z,31.50
2022-12-12T00:06:13.196Z,28.25
2022-12-12T00:08:42.808Z,30.00
2022-12-12T00:11:10.747Z,28.25
2022-12-12T00:13:38.671Z,27.50
2022-12-12T00:16:07.216Z,29.75
2022-12-12T00:18:36.822Z,29.75
2022-12-12T00:21:05.361Z,28.25
2022-12-12T00:23:33.273Z,31.25
2022-12-12T00:26:03.206Z,28.00
2022-12-12T00:28:31.341Z,30.25
2022-12-12T00:30:59.272Z,29.75
2022-12-12T00:33:27.240Z,27.00
2022-12-12T00:35:55.510Z,25.75
2022-12-12T00:38:24.337Z,25.75
2022-12-12T00:40:56.058Z,23.75
2022-12-12T00:43:25.451Z,29.25
2022-12-12T00:45:53.316Z,22.75
2022-12-12T00:48:21.713Z,28.25
2022-12-12T00:50:49.600Z,26.75
2022-12-12T00:53:17.586Z,26.75
2022-12-12T00:55:45.438Z,21.00
2022-12-12T00:58:13.321Z,25.00
2022-12-12T01:00:43.774Z,22.00
2022-12-12T01:03:11.666Z,23.25
2022-12-12T01:05:39.610Z,26.50
2022-12-12T01:08:07.543Z,24.50
2022-12-12T01:10:35.755Z,22.25
2022-12-12T01:13:03.634Z,23.75
2022-12-12T01:15:31.542Z,22.75
2022-12-12T01:18:00.796Z,20.75
2022-12-12T01:20:29.063Z,21.25
2022-12-12T01:22:56.978Z,20.00
2022-12-12T01:25:24.827Z,25.00
2022-12-12T01:27:52.769Z,23.25
2022-12-12T01:30:22.135Z,22.75
2022-12-12T01:32:50.104Z,18.50
2022-12-12T01:35:19.453Z,24.00
2022-12-12T01:37:48.321Z,21.25
2022-12-12T01:40:17.857Z,21.50
2022-12-12T01:42:45.786Z,20.25
2022-12-12T01:45:50.734Z,20.00
2022-12-12T01:48:19.461Z,19.25
2022-12-12T01:50:48.774Z,18.00
2022-12-12T01:53:17.469Z,20.50
2022-12-12T01:55:45.830Z,17.50
2022-12-12T01:58:13.707Z,17.75
2022-12-12T02:00:41.773Z,17.00
2022-12-12T02:03:09.663Z,19.75
2022-12-12T02:05:40.381Z,17.75
2022-12-12T02:08:09.820Z,18.50
2022-12-12T02:10:38.133Z,17.00
2022-12-12T02:13:07.817Z,18.75
2022-12-12T02:15:39.040Z,18.25
2022-12-12T02:18:12.531Z,18.50
2022-12-12T02:20:45.184Z,17.00
2022-12-12T02:23:47.660Z,19.00
2022-12-12T02:26:36.938Z,17.50
2022-12-12T02:29:40.994Z,17.75
2022-12-12T02:32:12.686Z,18.50
2022-12-12T02:34:43.867Z,20.50
2022-12-12T02:37:14.071Z,16.50
2022-12-12T02:39:46.057Z,17.50
2022-12-12T02:42:19.599Z,20.75
2022-12-12T02:44:51.349Z,19.00
2022-12-12T02:47:22.436Z,15.50
2022-12-12T02:49:52.827Z,17.00
2022-12-12T02:52:20.724Z,16.25
2022-12-12T02:54:49.596Z,16.25
2022-12-12T02:57:18.258Z,15.50
2022-12-12T02:59:47.976Z,16.00
2022-12-12T03:03:17.336Z,16.50
2022-12-12T03:06:03.951Z,16.00
2022-12-12T03:08:42.153Z,14.00
2022-12-12T03:11:11.686Z,15.50
2022-12-12T03:13:43.755Z,17.00
2022-12-12T03:16:19.264Z,17.75
2022-12-12T03:18:53.385Z,17.75
2022-12-12T03:21:23.467Z,18.75
2022-12-12T03:23:52.426Z,19.25
2022-12-12T03:26:22.482Z,18.50
2022-12-12T03:28:52.224Z,22.25
2022-12-12T03:31:22.119Z,25.50
2022-12-12T03:33:51.947Z,22.25
2022-12-12T03:36:22.947Z,23.75
2022-12-12T03:38:57.038Z,24.75
2022-12-12T03:41:27.286Z,25.50
2022-12-12T03:43:56.888Z,29.50
2022-12-12T03:46:25.864Z,30.50
2022-12-12T03:48:56.681Z,27.00
2022-12-12T03:51:27.492Z,28.75
2022-12-12T03:53:57.827Z,35.75
2022-12-12T03:56:27.262Z,33.00
2022-12-12T03:58:56.749Z,34.75
2022-12-12T04:01:26.288Z,35.25
2022-12-12T04:03:56.922Z,32.25
2022-12-12T04:06:31.022Z,33.25
2022-12-12T04:09:17.444Z,32.00
2022-12-12T04:12:08.419Z,32.50
2022-12-12T04:14:45.179Z,33.75
2022-12-12T04:17:14.820Z,31.00
2022-12-12T04:20:02.294Z,37.00
2022-12-12T04:22:52.878Z,37.00
2022-12-12T04:25:26.181Z,32.25
2022-12-12T04:27:53.672Z,37.75
2022-12-12T04:30:22.010Z,34.00
2022-12-12T04:32:50.816Z,31.00
2022-12-12T04:35:19.625Z,31.50
2022-12-12T04:37:50.481Z,33.50
2022-12-12T04:40:19.468Z,32.00
2022-12-12T04:42:51.666Z,33.50
2022-12-12T04:45:21.402Z,33.00
2022-12-12T04:47:50.331Z,30.75
2022-12-12T04:50:18.251Z,33.75
2022-12-12T04:52:46.172Z,30.50
2022-12-12T04:55:16.573Z,30.75
2022-12-12T04:57:45.824Z,30.50
2022-12-12T05:00:14.988Z,30.00
2022-12-12T05:02:51.548Z,30.75
2022-12-12T05:05:20.263Z,29.25
2022-12-12T05:07:50.484Z,29.25
2022-12-12T05:10:20.544Z,25.75
2022-12-12T05:12:49.439Z,29.00
2022-12-12T05:15:18.398Z,31.25
2022-12-12T05:17:47.766Z,24.75
2022-12-12T05:20:16.399Z,29.50
2022-12-12T05:22:44.262Z,25.25
2022-12-12T05:25:12.368Z,26.25
2022-12-12T05:27:41.774Z,25.50
2022-12-12T05:30:11.450Z,23.25
2022-12-12T05:32:39.328Z,29.00
2022-12-12T05:35:08.992Z,25.50
2022-12-12T05:37:36.895Z,23.50
2022-12-12T05:40:05.344Z,24.75
2022-12-12T05:42:33.316Z,24.50
2022-12-12T05:45:02.616Z,22.25
2022-12-12T05:47:30.480Z,21.00
2022-12-12T05:49:58.677Z,21.50
2022-12-12T05:52:27.440Z,20.25
2022-12-12T05:54:55.593Z,21.00
2022-12-12T05:57:23.466Z,20.25
2022-12-12T05:59:52.042Z,20.50
2022-12-12T06:02:21.400Z,20.00
2022-12-12T06:04:49.380Z,23.00
2022-12-12T06:07:17.287Z,20.25
2022-12-12T06:09:45.466Z,20.75
2022-12-12T06:12:13.518Z,20.00
2022-12-12T06:14:41.506Z,20.25
2022-12-12T06:17:09.431Z,22.75
2022-12-12T06:19:38.993Z,19.00
2022-12-12T06:22:06.884Z,17.75
2022-12-12T06:24:35.010Z,18.25
2022-12-12T06:27:03.290Z,17.75
2022-12-12T06:29:31.144Z,19.75
2022-12-12T06:31:59.320Z,18.50
2022-12-12T06:34:27.212Z,17.75
2022-12-12T06:36:56.481Z,17.00
2022-12-12T06:39:25.145Z,16.25
2022-12-12T06:41:53.005Z,17.50
2022-12-12T06:44:21.242Z,16.50
2022-12-12T06:46:49.157Z,17.00
2022-12-12T06:49:17.340Z,15.50
2022-12-12T06:51:45.209Z,15.25
2022-12-12T06:58:05.222Z,15.50
2022-12-12T07:00:33.391Z,18.00
2022-12-12T07:03:01.329Z,15.00
2022-12-12T07:05:29.454Z,14.50
2022-12-12T07:07:57.372Z,15.00
2022-12-12T07:10:25.566Z,14.75
2022-12-12T07:12:57.288Z,14.00
2022-12-12T07:15:26.777Z,13.75
2022-12-12T07:17:55.641Z,13.50
2022-12-12T07:20:23.737Z,13.25
2022-12-12T07:22:51.617Z,17.75
2022-12-12T07:25:19.579Z,18.50
2022-12-12T07:27:47.447Z,19.50
2022-12-12T07:30:16.342Z,19.00
2022-12-12T07:32:45.627Z,22.00
2022-12-12T07:35:13.851Z,19.75
2022-12-12T07:37:41.988Z,24.75
2022-12-12T07:40:11.042Z,24.50
2022-12-12T07:42:38.887Z,28.25
2022-12-12T07:45:14.971Z,23.75
2022-12-12T07:47:47.317Z,26.75
2022-12-12T07:50:15.504Z,27.75
2022-12-12T07:52:43.608Z,30.00
2022-12-12T07:55:12.304Z,29.50
2022-12-12T07:57:41.402Z,32.00
2022-12-12T08:00:14.315Z,34.25
2022-12-12T08:02:42.225Z,28.50
2022-12-12T08:05:12.047Z,31.25
2022-12-12T08:07:40.222Z,30.00
2022-12-12T08:10:08.842Z,31.25
2022-12-12T08:12:36.724Z,32.00
2022-12-12T08:15:04.962Z,31.50
2022-12-12T08:17:32.905Z,31.75
2022-12-12T08:20:01.095Z,31.25
2022-12-12T08:22:30.376Z,31.00
2022-12-12T08:24:58.238Z,35.25
2022-12-12T08:27:26.152Z,30.25
2022-12-12T08:29:54.559Z,32.25
2022-12-12T08:32:22.502Z,27.50
2022-12-12T08:34:50.345Z,29.50
2022-12-12T08:37:18.240Z,31.25
2022-12-12T08:39:52.723Z,29.75
2022-12-12T08:42:23.353Z,27.25
2022-12-12T08:44:51.337Z,27.00
2022-12-12T08:47:19.234Z,28.75
2022-12-12T08:49:47.445Z,24.25
2022-12-12T08:52:15.300Z,27.00
2022-12-12T08:54:43.542Z,27.25
2022-12-12T08:57:12.852Z,26.75
2022-12-12T08:59:41.019Z,26.25
2022-12-12T09:02:10.489Z,28.00
2022-12-12T09:04:38.394Z,27.00
2022-12-12T09:07:08.643Z,28.25
2022-12-12T09:09:37.104Z,24.50
2022-12-12T09:12:05.228Z,29.00
2022-12-12T09:14:34.571Z,28.25
2022-12-12T09:17:02.528Z,29.50
2022-12-12T09:19:31.106Z,34.50
2022-12-12T09:21:58.981Z,31.00
2022-12-12T09:24:26.946Z,30.50
2022-12-12T09:26:54.853Z,33.00
2022-12-12T09:29:23.000Z,31.00
2022-12-12T09:31:52.353Z,30.25
2022-12-12T09:34:20.259Z,36.75
2022-12-12T09:36:48.106Z,29.25
2022-12-12T09:39:16.283Z,30.00
2022-12-12T09:41:44.171Z,31.00
2022-12-12T09:44:12.546Z,33.00
2022-12-12T09:46:42.078Z,33.75
2022-12-12T09:49:16.536Z,31.75
2022-12-12T09:51:45.911Z,32.50
2022-12-12T09:54:15.486Z,33.50
2022-12-12T09:56:49.419Z,36.25
2022-12-12T09:59:19.045Z,31.75
2022-12-12T10:01:53.659Z,34.75
2022-12-12T10:04:25.733Z,30.50
2022-12-12T10:06:56.395Z,27.75
2022-12-12T10:09:36.050Z,33.25
2022-12-12T10:12:07.999Z,30.75
2022-12-12T10:14:38.202Z,33.50
2022-12-12T10:17:07.834Z,35.50
2022-12-12T10:19:47.447Z,35.50
2022-12-12T10:22:17.666Z,33.50
2022-12-12T10:24:46.964Z,30.50
2022-12-12T10:27:15.231Z,35.00
2022-12-12T10:29:46.900Z,33.75
2022-12-12T10:32:19.413Z,36.00
2022-12-12T10:34:55.400Z,36.50
2022-12-12T10:37:35.388Z,37.00
2022-12-12T10:40:10.505Z,34.25
2022-12-12T10:42:39.912Z,36.75
2022-12-12T10:45:30.797Z,34.00
2022-12-12T10:47:58.700Z,39.25
2022-12-12T10:50:31.496Z,33.25
2022-12-12T10:52:59.514Z,31.75
2022-12-12T10:55:36.323Z,34.25
2022-12-12T10:58:05.217Z,35.25
2022-12-12T11:00:34.614Z,31.00
2022-12-12T11:03:12.807Z,33.50
2022-12-12T11:05:42.537Z,31.50
2022-12-12T11:08:20.936Z,30.00
2022-12-12T11:11:00.714Z,28.25
2022-12-12T11:13:28.655Z,33.50
2022-12-12T11:15:58.958Z,27.25
2022-12-12T11:18:27.108Z,28.25
2022-12-12T11:21:03.457Z,30.75
2022-12-12T11:23:31.341Z,30.75
2022-12-12T11:26:00.000Z,25.75
2022-12-12T11:28:29.558Z,26.25
2022-12-12T11:30:57.450Z,26.75
2022-12-12T11:33:31.342Z,28.25
2022-12-12T11:36:01.826Z,23.50
2022-12-12T11:38:31.789Z,25.50
2022-12-12T11:41:01.221Z,24.50
2022-12-12T11:43:29.786Z,23.25
2022-12-12T11:46:05.112Z,22.50
2022-12-12T11:48:44.474Z,19.75
2022-12-12T11:51:13.771Z,20.25
2022-12-12T11:53:42.606Z,19.50
2022-12-12T11:56:17.664Z,21.50
2022-12-12T11:58:47.181Z,19.75
2022-12-12T12:01:18.692Z,21.75
2022-12-12T12:03:57.563Z,20.25
2022-12-12T12:06:34.368Z,21.75
2022-12-12T12:09:22.745Z,19.50
2022-12-12T12:11:56.395Z,20.75
2022-12-12T12:15:18.297Z,20.25
2022-12-12T12:17:57.944Z,17.75
2022-12-12T12:20:30.909Z,15.00
2022-12-12T12:23:03.303Z,20.00
2022-12-12T12:25:39.054Z,16.00
2022-12-12T12:28:22.424Z,16.25
2022-12-12T12:30:53.235Z,16.00
2022-12-12T12:33:30.216Z,15.00
2022-12-12T12:36:02.789Z,15.75
2022-12-12T12:38:42.953Z,15.00
2022-12-12T12:41:22.935Z,15.25
2022-12-12T12:44:01.401Z,14.75
2022-12-12T12:46:35.352Z,16.75
2022-12-12T12:49:05.977Z,13.50
2022-12-12T12:51:35.357Z,13.25
2022-12-12T12:54:06.168Z,14.50
2022-12-12T12:56:36.728Z,13.75
2022-12-12T12:59:11.570Z,14.50
2022-12-12T13:01:40.551Z,14.00
2022-12-12T13:04:13.091Z,14.75
2022-12-12T13:06:43.624Z,16.00
2022-12-12T13:09:19.681Z,13.00
2022-12-12T13:11:48.747Z,15.00
2022-12-12T13:14:18.052Z,14.00
2022-12-12T13:16:45.952Z,11.75
2022-12-12T13:19:16.471Z,13.75
2022-12-12T13:21:47.960Z,12.50
2022-12-12T13:24:19.392Z,14.75
2022-12-12T13:26:50.284Z,13.25
2022-12-12T13:29:36.613Z,12.25
2022-12-12T13:32:29.155Z,11.00
2022-12-12T13:35:00.843Z,11.75
2022-12-12T13:37:28.795Z,12.25
2022-12-12T13:40:01.979Z,13.25
2022-12-12T13:42:48.587Z,11.50
2022-12-12T13:45:43.951Z,11.50
2022-12-12T13:48:46.456Z,13.00
2022-12-12T13:51:36.926Z,13.00
2022-12-12T13:54:54.688Z,12.75
2022-12-12T13:57:29.683Z,13.00
2022-12-12T14:00:20.131Z,16.50
2022-12-12T14:03:29.280Z,15.25
2022-12-12T14:06:08.291Z,16.00
2022-12-12T14:08:36.896Z,15.00
2022-12-12T14:11:06.416Z,18.75
2022-12-12T14:13:45.455Z,18.25
2022-12-12T14:16:21.918Z,20.00
2022-12-12T14:19:08.781Z,18.00
2022-12-12T14:21:47.470Z,21.25
2022-12-12T14:24:47.953Z,20.50
2022-12-12T14:27:16.140Z,24.00
2022-12-12T14:29:45.792Z,17.00
2022-12-12T14:32:23.493Z,21.00
2022-12-12T14:34:54.087Z,22.75
2022-12-12T14:37:34.464Z,23.50
2022-12-12T14:40:04.670Z,23.00
2022-12-12T14:43:19.725Z,17.75
2022-12-12T14:45:35.094Z,19.00
2022-12-12T14:48:16.622Z,21.75
2022-12-12T14:51:06.629Z,21.50
2022-12-12T14:53:42.893Z,23.00
2022-12-12T14:56:11.749Z,21.75
2022-12-12T14:58:41.383Z,21.50
2022-12-12T15:01:10.651Z,26.50
2022-12-12T15:03:40.187Z,24.25
2022-12-12T15:06:30.952Z,24.50
2022-12-12T15:09:07.522Z,23.50
2022-12-12T15:11:35.675Z,24.25
2022-12-12T15:14:03.904Z,23.25
2022-12-12T15:16:47.504Z,28.75
2022-12-12T15:19:17.362Z,27.25
2022-12-12T15:21:45.309Z,30.75
2022-12-12T15:24:18.388Z,29.50
2022-12-12T15:26:46.460Z,31.50
2022-12-12T15:29:17.725Z,28.25
2022-12-12T15:31:47.516Z,28.75
2022-12-12T15:34:34.940Z,26.75
2022-12-12T15:37:23.321Z,28.50
2022-12-12T15:40:20.071Z,28.50
2022-12-12T15:42:51.559Z,32.50
2022-12-12T15:45:21.718Z,29.00
2022-12-12T15:47:52.422Z,33.75
2022-12-12T15:50:21.406Z,33.75
2022-12-12T15:52:58.123Z,33.00
2022-12-12T15:55:26.048Z,32.25
2022-12-12T15:57:54.094Z,34.00
2022-12-12T16:00:30.412Z,35.50
2022-12-12T16:03:01.032Z,37.75
2022-12-12T16:05:31.307Z,42.75
2022-12-12T16:08:33.400Z,41.25
2022-12-12T16:11:02.182Z,38.00
2022-12-12T16:13:36.359Z,38.75
2022-12-12T16:16:38.778Z,44.00
2022-12-12T16:19:17.977Z,43.00
2022-12-12T16:21:45.871Z,39.75
2022-12-12T16:24:21.225Z,40.75
2022-12-12T16:26:49.231Z,43.50
2022-12-12T16:29:17.399Z,40.50
2022-12-12T16:31:46.380Z,38.00
2022-12-12T16:34:15.799Z,40.25
2022-12-12T16:36:43.687Z,41.25
2022-12-12T16:39:13.797Z,42.00
2022-12-12T16:41:41.788Z,39.75
2022-12-12T16:44:09.631Z,45.00
2022-12-12T16:46:37.506Z,42.75
2022-12-12T16:49:07.408Z,38.50
2022-12-12T16:51:41.085Z,42.25
2022-12-12T16:54:14.274Z,41.25
2022-12-12T16:56:42.247Z,39.75
2022-12-12T16:59:10.517Z,38.50
2022-12-12T17:01:39.033Z,37.00
2022-12-12T17:04:08.179Z,41.50
2022-12-12T17:06:36.079Z,39.75
2022-12-12T17:09:05.664Z,38.75
2022-12-12T17:11:33.608Z,35.25
2022-12-12T17:14:01.561Z,37.00
2022-12-12T17:16:29.484Z,36.75
2022-12-12T17:18:58.436Z,33.50
2022-12-12T17:21:26.381Z,34.00
2022-12-12T17:23:54.392Z,38.75
2022-12-12T17:26:24.816Z,37.50
2022-12-12T17:28:52.997Z,32.50
2022-12-12T17:31:20.954Z,35.25
2022-12-12T17:33:51.133Z,30.75
2022-12-12T17:36:19.341Z,30.25
2022-12-12T17:38:48.140Z,33.50
2022-12-12T17:41:16.239Z,33.00
2022-12-12T17:43:49.356Z,35.00
2022-12-12T17:46:19.996Z,29.50
2022-12-12T17:48:48.641Z,27.25
2022-12-12T17:51:17.285Z,27.50
2022-12-12T17:53:45.232Z,29.50
2022-12-12T17:56:14.052Z,25.00
2022-12-12T17:58:43.521Z,30.00
2022-12-12T18:01:13.531Z,26.25
2022-12-12T18:03:41.745Z,26.25
2022-12-12T18:06:09.794Z,28.00
2022-12-12T18:08:38.246Z,26.75
2022-12-12T18:11:07.803Z,28.50
2022-12-12T18:13:36.465Z,26.75
2022-12-12T18:16:04.665Z,24.50
2022-12-12T18:18:34.206Z,24.75
2022-12-12T18:21:04.163Z,24.50
2022-12-12T18:23:32.094Z,24.25
2022-12-12T18:26:04.407Z,24.75
2022-12-12T18:28:32.293Z,23.00
2022-12-12T18:31:00.472Z,22.25
2022-12-12T18:33:28.395Z,24.50
2022-12-12T18:36:03.681Z,26.25
2022-12-12T18:38:31.904Z,24.50
2022-12-12T18:41:00.169Z,21.50
2022-12-12T18:43:28.093Z,23.75
2022-12-12T18:45:56.202Z,23.00
2022-12-12T18:48:24.511Z,20.25
2022-12-12T18:50:52.348Z,22.00
2022-12-12T18:53:21.666Z,22.50
2022-12-12T18:55:49.588Z,22.00
2022-12-12T18:58:17.761Z,22.00
2022-12-12T19:00:47.027Z,21.75
2022-12-12T19:03:14.991Z,21.25
2022-12-12T19:05:43.063Z,23.50
2022-12-12T19:08:11.068Z,25.50
2022-12-12T19:10:40.895Z,22.00
2022-12-12T19:13:08.775Z,23.00
2022-12-12T19:15:36.703Z,21.50
2022-12-12T19:18:04.938Z,22.75
2022-12-12T19:20:32.816Z,22.50
2022-12-12T19:23:00.679Z,21.25
2022-12-12T19:25:28.557Z,21.75
2022-12-12T19:27:57.941Z,21.50
2022-12-12T19:30:28.044Z,21.50
2022-12-12T19:32:56.247Z,23.25
2022-12-12T19:35:24.212Z,24.75
2022-12-12T19:37:52.080Z,20.25
2022-12-12T19:40:20.428Z,26.00
2022-12-12T19:42:48.317Z,23.75
2022-12-12T19:45:17.784Z,21.25
2022-12-12T19:47:45.631Z,20.75
2022-12-12T19:50:14.011Z,22.00
2022-12-12T19:52:42.109Z,22.50
2022-12-12T19:55:10.503Z,21.25
2022-12-12T19:57:38.350Z,21.50
2022-12-12T20:00:09.604Z,18.00
2022-12-12T20:02:38.946Z,23.25
2022-12-12T20:05:07.158Z,22.00
2022-12-12T20:07:35.895Z,21.00
2022-12-12T20:10:04.310Z,24.50
2022-12-12T20:12:32.326Z,20.75
2022-12-12T20:15:00.554Z,20.75
2022-12-12T20:17:28.507Z,21.75
2022-12-12T20:19:58.193Z,21.25
2022-12-12T20:22:26.226Z,21.75
2022-12-12T20:24:54.344Z,24.75
2022-12-12T20:27:22.290Z,21.00
2022-12-12T20:29:50.555Z,21.00
2022-12-12T20:32:18.620Z,21.75
2022-12-12T20:34:46.743Z,22.75
2022-12-12T20:37:19.973Z,22.50
2022-12-12T20:39:48.588Z,23.25
2022-12-12T20:42:16.482Z,23.25
2022-12-12T20:44:44.414Z,22.25
2022-12-12T20:47:17.478Z,20.75
2022-12-12T20:49:45.704Z,19.75
2022-12-12T20:52:15.088Z,20.25
2022-12-12T20:54:43.051Z,20.25
2022-12-12T20:57:10.943Z,20.25
2022-12-12T20:59:39.120Z,24.00
2022-12-12T21:02:07.318Z,25.00
2022-12-12T21:04:35.356Z,21.75
2022-12-12T21:07:04.302Z,28.25
2022-12-12T21:09:34.145Z,27.00
2022-12-12T21:12:02.053Z,30.25
2022-12-12T21:14:31.012Z,30.50
2022-12-12T21:16:59.263Z,33.00
2022-12-12T21:19:27.523Z,32.00
2022-12-12T21:21:56.404Z,33.25
2022-12-12T21:24:24.590Z,35.00
2022-12-12T21:26:54.052Z,33.75
2022-12-12T21:29:22.422Z,35.25
2022-12-12T21:31:52.360Z,38.25
2022-12-12T21:34:21.575Z,36.25
2022-12-12T21:36:51.834Z,37.25
2022-12-12T21:39:20.308Z,40.50
2022-12-12T21:41:48.199Z,38.00
2022-12-12T21:44:17.487Z,40.00
2022-12-12T21:46:45.530Z,35.75
2022-12-12T21:49:36.771Z,40.75
2022-12-12T21:52:05.533Z,39.75
2022-12-12T21:54:33.817Z,37.00
2022-12-12T21:57:02.815Z,40.50
2022-12-12T21:59:32.582Z,40.00
2022-12-12T22:02:01.353Z,41.75
2022-12-12T22:04:29.485Z,41.25
2022-12-12T22:06:58.172Z,36.25
2022-12-12T22:09:26.395Z,40.50
2022-12-12T22:12:03.017Z,35.50
2022-12-12T22:14:34.090Z,38.50
2022-12-12T22:17:02.165Z,40.50
2022-12-12T22:19:30.403Z,38.75
2022-12-12T22:21:58.272Z,38.75
2022-12-12T22:24:26.477Z,33.75
2022-12-12T22:26:54.394Z,34.75
2022-12-12T22:29:22.610Z,35.25
2022-12-12T22:31:52.509Z,32.75
2022-12-12T22:34:21.532Z,32.75
2022-12-12T22:36:49.596Z,36.25
2022-12-12T22:39:20.141Z,37.00
2022-12-12T22:41:48.160Z,35.50
2022-12-12T22:44:17.313Z,32.50
2022-12-12T22:46:45.286Z,30.50
2022-12-12T22:49:15.307Z,32.75
2022-12-12T22:51:43.534Z,30.75
2022-12-12T22:54:11.583Z,29.00
2022-12-12T22:56:40.305Z,30.25
2022-12-12T22:59:08.749Z,34.00
2022-12-12T23:01:37.223Z,32.75
2022-12-12T23:04:05.382Z,36.00
2022-12-12T23:06:35.839Z,31.50
2022-12-12T23:09:05.177Z,34.25
2022-12-12T23:11:33.298Z,35.50
2022-12-12T23:14:04.609Z,35.50
2022-12-12T23:16:34.501Z,33.25
2022-12-12T23:19:02.877Z,37.00
2022-12-12T23:21:30.761Z,37.00
2022-12-12T23:24:00.080Z,39.25
2022-12-12T23:26:30.008Z,37.00
2022-12-12T23:28:58.295Z,37.50
2022-12-12T23:31:27.555Z,43.75
2022-12-12T23:33:56.115Z,37.75
2022-12-12T23:36:24.254Z,40.75
2022-12-12T23:38:55.663Z,39.00
2022-12-12T23:41:24.969Z,35.75
2022-12-12T23:43:52.899Z,44.50
2022-12-12T23:46:29.824Z,41.00
2022-12-12T23:48:57.859Z,41.50
2022-12-12T23:51:26.100Z,39.25
2022-12-12T23:53:55.711Z,41.00
2022-12-12T23:56:24.993Z,39.50
2022-12-12T23:58:53.230Z,39.25
